Time;durP1;ratioP1;P1;durP2;ratioP2;P2;SDS_P1;SDS_P2;PMS_P1;PMS_P2;Temp;Humidity;BMP_temperature;BMP_pressure;BME280_temperature;BME280_humidity;BME280_pressure;Samples;Min_cycle;Max_cycle;Signal;HPM_P1;HPM_P2
2022/03/25 00:02:16;;;;;;;9.00;6.60;;;;;;;13.62;26.26;99726.28;5093324;28;20730;-74
2022/03/25 00:04:43;;;;;;;9.20;6.70;;;;;;;13.60;26.61;99725.69;5093708;28;20193;-74
2022/03/25 00:07:10;;;;;;;8.10;6.93;;;;;;;13.54;26.48;99727.34;5093627;28;20194;-74
2022/03/25 00:09:37;;;;;;;7.60;6.30;;;;;;;13.60;26.12;99723.81;5093198;28;20199;-74
2022/03/25 00:12:05;;;;;;;11.97;6.47;;;;;;;13.62;26.30;99713.78;5093225;28;20732;-74
2022/03/25 00:14:34;;;;;;;10.87;6.30;;;;;;;13.59;26.61;99729.38;5093717;28;20187;-74
2022/03/25 00:17:01;;;;;;;8.03;6.93;;;;;;;13.52;26.67;99718.69;5093618;28;20235;-74
2022/03/25 00:19:27;;;;;;;7.00;6.40;;;;;;;13.55;26.45;99722.78;5093440;28;20191;-74
2022/03/25 00:21:54;;;;;;;8.53;7.10;;;;;;;13.54;26.74;99724.66;5093031;28;20240;-74
2022/03/25 00:24:21;;;;;;;12.63;6.77;;;;;;;13.57;26.56;99729.59;5093478;28;20284;-74
2022/03/25 00:26:47;;;;;;;6.70;6.20;;;;;;;13.51;26.60;99722.41;5092922;28;20244;-74
2022/03/25 00:29:15;;;;;;;7.73;6.60;;;;;;;13.46;26.77;99721.38;5092879;28;20195;-74
2022/03/25 00:31:43;;;;;;;9.77;6.70;;;;;;;13.50;26.87;99720.78;5093145;28;20199;-74
2022/03/25 00:34:09;;;;;;;10.10;6.43;;;;;;;13.48;26.54;99716.69;5093356;28;20244;-74
2022/03/25 00:36:36;;;;;;;7.10;6.17;;;;;;;13.50;26.80;99727.94;5092712;28;20195;-74
2022/03/25 00:39:03;;;;;;;8.03;7.23;;;;;;;13.46;26.63;99716.88;5093822;28;20253;-74
2022/03/25 00:41:31;;;;;;;6.77;6.07;;;;;;;13.43;26.68;99719.97;5093035;28;20264;-74
2022/03/25 00:43:57;;;;;;;6.67;5.90;;;;;;;13.53;26.84;99717.69;5092848;28;20778;-74
2022/03/25 00:46:26;;;;;;;15.43;7.70;;;;;;;13.54;26.64;99723.84;5093173;28;20252;-74
2022/03/25 00:48:55;;;;;;;7.20;6.50;;;;;;;13.48;26.49;99720.16;5093423;28;20203;-74
2022/03/25 00:51:22;;;;;;;9.57;6.67;;;;;;;13.38;26.90;99719.78;5092497;28;20286;-74
2022/03/25 00:53:49;;;;;;;10.37;6.73;;;;;;;13.37;26.95;99726.16;5092450;28;20230;-75
2022/03/25 00:56:16;;;;;;;9.43;6.60;;;;;;;13.40;27.03;99719.56;5093499;28;20244;-75
2022/03/25 00:58:43;;;;;;;11.73;6.63;;;;;;;13.35;27.26;99722.84;5092367;28;20249;-75
2022/03/25 01:01:10;;;;;;;14.17;7.10;;;;;;;13.40;27.23;99720.38;5093488;28;20274;-74
2022/03/25 01:03:37;;;;;;;12.17;6.40;;;;;;;13.44;26.92;99721.59;5092225;28;20276;-75
2022/03/25 01:06:05;;;;;;;15.20;7.17;;;;;;;13.30;27.34;99722.66;5092842;28;20283;-75
2022/03/25 01:08:31;;;;;;;8.10;7.30;;;;;;;13.29;27.31;99713.03;5093113;28;20192;-75
2022/03/25 01:10:58;;;;;;;8.70;6.37;;;;;;;13.25;27.82;99717.13;5092231;28;20188;-74
2022/03/25 01:13:25;;;;;;;6.97;6.10;;;;;;;13.06;27.91;99714.47;5092444;28;20582;-75
2022/03/25 01:15:52;;;;;;;6.97;6.37;;;;;;;12.95;27.92;99707.88;5092520;28;20195;-74
2022/03/25 01:18:18;;;;;;;9.03;7.03;;;;;;;12.95;28.02;99707.88;5092743;28;20195;-74
2022/03/25 01:20:45;;;;;;;7.93;6.37;;;;;;;12.89;28.01;99700.72;5092121;28;20659;-75
2022/03/25 01:23:13;;;;;;;10.03;6.83;;;;;;;12.84;28.23;99702.34;5092604;28;20215;-75
2022/03/25 01:25:40;;;;;;;9.73;6.57;;;;;;;12.78;28.38;99703.19;5092078;28;20666;-75
2022/03/25 01:28:07;;;;;;;9.37;7.13;;;;;;;12.80;28.17;99699.28;5094679;28;20190;-74
2022/03/25 01:30:33;;;;;;;8.70;6.57;;;;;;;12.72;28.39;99699.50;5099096;28;20195;-75
2022/03/25 01:33:00;;;;;;;7.20;6.37;;;;;;;12.66;28.46;99700.28;5098974;28;20199;-75
2022/03/25 01:35:27;;;;;;;10.37;7.07;;;;;;;12.74;28.51;99701.97;5098760;28;20781;-75
2022/03/25 01:37:54;;;;;;;7.37;6.67;;;;;;;12.71;28.51;99705.84;5098717;28;20195;-75
2022/03/25 01:40:22;;;;;;;8.00;7.20;;;;;;;12.63;28.85;99692.72;5098701;28;20203;-75
2022/03/25 01:42:49;;;;;;;10.90;6.83;;;;;;;12.77;28.70;99704.19;5098863;28;20252;-75
2022/03/25 01:45:29;;;;;;;6.97;6.23;;;;;;;12.76;28.59;99708.72;5098644;28;20619;-75
2022/03/25 01:47:56;;;;;;;7.57;6.87;;;;;;;12.70;28.99;99706.84;5099771;28;20236;-75
2022/03/25 01:50:23;;;;;;;8.23;6.77;;;;;;;12.65;28.97;99713.81;5098596;28;20724;-75
2022/03/25 01:52:51;;;;;;;8.90;6.57;;;;;;;12.58;28.98;99705.81;5098906;28;20252;-75
2022/03/25 01:55:21;;;;;;;12.07;7.07;;;;;;;12.55;29.25;99708.91;5098848;28;20198;-75
2022/03/25 01:57:50;;;;;;;10.40;7.20;;;;;;;12.33;29.40;99704.75;5098830;28;20198;-74
2022/03/25 02:00:19;;;;;;;12.93;7.17;;;;;;;12.38;29.45;99713.00;5099077;28;20187;-74
2022/03/25 02:02:46;;;;;;;7.17;6.60;;;;;;;12.16;29.89;99724.78;5098976;28;20286;-74
2022/03/25 02:05:13;;;;;;;13.47;7.27;;;;;;;12.24;29.75;99724.63;5098351;28;20233;-74
2022/03/25 02:07:40;;;;;;;9.00;6.73;;;;;;;12.08;29.99;99724.97;5098396;28;20230;-74
2022/03/25 02:10:07;;;;;;;10.77;6.93;;;;;;;12.13;29.74;99719.06;5098686;28;20191;-73
2022/03/25 02:12:35;;;;;;;7.70;6.90;;;;;;;11.99;30.38;99733.31;5098674;28;20191;-76
2022/03/25 02:15:06;;;;;;;8.73;6.10;;;;;;;11.88;30.62;99710.75;5098683;28;20225;-76
2022/03/25 02:17:33;;;;;;;8.20;6.03;;;;;;;11.72;30.64;99712.97;5098365;28;20667;-76
2022/03/25 02:19:59;;;;;;;10.77;6.80;;;;;;;11.82;30.38;99730.19;5098299;28;20243;-76
2022/03/25 02:22:27;;;;;;;10.93;6.10;;;;;;;11.75;30.78;99726.69;5098553;28;20671;-76
2022/03/25 02:24:54;;;;;;;8.67;6.57;;;;;;;11.61;31.00;99732.97;5098218;28;20283;-76
2022/03/25 02:27:24;;;;;;;8.73;6.47;;;;;;;11.54;30.87;99729.41;5098225;28;20659;-76
2022/03/25 02:29:51;;;;;;;8.77;6.83;;;;;;;11.60;31.36;99728.66;5099605;28;20229;-76
2022/03/25 02:32:20;;;;;;;9.23;6.47;;;;;;;11.63;31.32;99738.91;5098501;28;20256;-76
2022/03/25 02:34:46;;;;;;;7.27;6.57;;;;;;;11.57;31.45;99726.38;5098135;28;20205;-76
2022/03/25 02:37:13;;;;;;;7.70;6.07;;;;;;;11.45;31.80;99738.56;5098190;28;20215;-76
2022/03/25 02:39:41;;;;;;;8.43;6.20;;;;;;;11.34;31.69;99727.63;5096466;28;20198;-76
2022/03/25 02:42:09;;;;;;;6.73;6.13;;;;;;;11.37;31.62;99728.09;5094919;28;20562;-76
2022/03/25 02:44:35;;;;;;;11.23;6.83;;;;;;;11.34;32.22;99732.94;5094851;28;20768;-76
2022/03/25 02:47:02;;;;;;;9.47;6.63;;;;;;;11.17;32.06;99732.44;5095710;28;20190;-76
2022/03/25 02:49:29;;;;;;;8.37;6.10;;;;;;;11.13;32.60;99736.50;5095387;28;20250;-76
2022/03/25 02:51:55;;;;;;;6.73;6.10;;;;;;;10.99;32.74;99740.91;5095328;28;20198;-77
2022/03/25 02:54:22;;;;;;;6.80;6.23;;;;;;;11.06;32.18;99740.13;5094747;28;20196;-77
2022/03/25 02:56:50;;;;;;;9.70;6.20;;;;;;;11.04;32.66;99737.69;5095079;28;20190;-77
2022/03/25 02:59:17;;;;;;;10.83;6.47;;;;;;;11.04;32.73;99738.47;5095760;28;20584;-77
2022/03/25 03:01:43;;;;;;;7.40;6.67;;;;;;;10.98;32.46;99739.25;5094872;28;20243;-77
2022/03/25 03:04:10;;;;;;;9.73;7.40;;;;;;;10.99;32.27;99746.22;5094449;28;20704;-76
2022/03/25 03:06:37;;;;;;;7.33;6.67;;;;;;;10.94;32.35;99745.13;5095041;28;20678;-76
2022/03/25 03:09:04;;;;;;;7.00;6.37;;;;;;;10.99;32.42;99745.41;5094479;28;20196;-76
2022/03/25 03:11:30;;;;;;;11.10;6.97;;;;;;;11.08;32.55;99744.25;5094992;28;20188;-76
2022/03/25 03:13:59;;;;;;;11.03;7.13;;;;;;;11.07;32.51;99731.16;5094647;28;20198;-75
2022/03/25 03:16:25;;;;;;;7.57;6.87;;;;;;;11.16;31.93;99741.44;5094680;28;20190;-76
2022/03/25 03:18:52;;;;;;;7.77;7.07;;;;;;;11.09;32.00;99735.25;5094296;28;20259;-76
2022/03/25 03:21:20;;;;;;;10.20;7.13;;;;;;;11.10;32.55;99730.78;5094567;28;20263;-75
2022/03/25 03:23:47;;;;;;;10.10;6.70;;;;;;;11.10;32.43;99731.56;5094518;28;20229;-75
2022/03/25 03:26:14;;;;;;;8.23;6.60;;;;;;;11.03;32.55;99730.72;5094145;28;20249;-76
2022/03/25 03:28:40;;;;;;;12.13;7.43;;;;;;;11.06;32.45;99730.31;5094385;28;20251;-76
2022/03/25 03:31:09;;;;;;;10.50;6.90;;;;;;;11.06;32.15;99724.19;5094313;28;20255;-74
2022/03/25 03:33:35;;;;;;;9.37;7.70;;;;;;;11.12;32.09;99718.94;5093955;28;20731;-74
2022/03/25 03:36:02;;;;;;;7.87;7.07;;;;;;;11.23;31.80;99717.56;5094216;28;20259;-76
2022/03/25 03:38:29;;;;;;;11.23;6.90;;;;;;;11.28;31.73;99715.97;5094379;28;20196;-76
2022/03/25 03:40:56;;;;;;;8.03;7.07;;;;;;;11.35;31.74;99705.38;5093334;28;20201;-78
2022/03/25 03:43:23;;;;;;;16.00;6.97;;;;;;;11.44;31.59;99713.00;5093590;28;20255;-75
2022/03/25 03:45:50;;;;;;;7.33;6.63;;;;;;;11.47;31.03;99707.25;5094883;28;20194;-74
2022/03/25 03:48:18;;;;;;;10.00;6.50;;;;;;;11.56;31.74;99716.72;5094776;28;20191;-74
2022/03/25 03:50:45;;;;;;;8.03;6.67;;;;;;;11.67;31.60;99705.56;5093888;28;20196;-75
2022/03/25 03:53:11;;;;;;;8.87;7.60;;;;;;;11.45;31.14;99714.63;5094135;28;20254;-75
2022/03/25 03:55:38;;;;;;;11.07;6.67;;;;;;;11.45;31.61;99714.63;5093863;28;20189;-74
2022/03/25 03:58:05;;;;;;;10.20;6.83;;;;;;;11.60;31.60;99718.00;5093762;28;20255;-75
2022/03/25 04:00:32;;;;;;;10.20;7.27;;;;;;;11.50;31.72;99720.19;5094562;28;20191;-76
2022/03/25 04:02:59;;;;;;;9.80;6.63;;;;;;;11.50;31.87;99714.03;5093407;28;20256;-75
2022/03/25 04:05:27;;;;;;;7.73;6.93;;;;;;;11.57;31.73;99712.22;5093582;28;20674;-75
2022/03/25 04:07:54;;;;;;;10.17;7.40;;;;;;;11.59;31.58;99715.53;5093466;28;20191;-75
2022/03/25 04:10:21;;;;;;;15.77;8.20;;;;;;;11.68;31.04;99715.19;5092212;28;20623;-75
2022/03/25 04:12:47;;;;;;;7.77;7.07;;;;;;;11.63;31.09;99706.97;5082761;28;20249;-76
2022/03/25 04:15:15;;;;;;;11.73;7.30;;;;;;;11.68;31.61;99703.72;5081854;28;20260;-75
2022/03/25 04:17:43;;;;;;;17.17;7.47;;;;;;;11.65;31.83;99704.13;5081978;28;20291;-76
2022/03/25 04:20:14;;;;;;;8.00;7.03;;;;;;;11.70;31.33;99710.50;5082608;28;20191;-75
2022/03/25 04:22:42;;;;;;;8.53;7.43;;;;;;;11.76;31.22;99706.22;5083498;28;20187;-76
2022/03/25 04:25:09;;;;;;;13.57;7.07;;;;;;;11.84;30.91;99706.84;5090774;28;20697;-75
2022/03/25 04:27:46;;;;;;;7.17;6.57;;;;;;;11.83;30.92;99715.88;5093379;28;20196;-75
2022/03/25 04:30:13;;;;;;;11.57;7.53;;;;;;;11.80;31.14;99710.94;5092789;28;20693;-75
2022/03/25 04:32:40;;;;;;;13.13;7.07;;;;;;;11.71;31.46;99720.13;5092792;28;20739;-75
2022/03/25 04:35:08;;;;;;;7.53;6.83;;;;;;;11.77;31.36;99724.66;5093361;28;20259;-75
2022/03/25 04:37:34;;;;;;;9.87;7.33;;;;;;;11.74;31.48;99719.72;5094225;28;20191;-75
2022/03/25 04:40:04;;;;;;;9.27;7.40;;;;;;;11.85;31.04;99708.53;5092669;28;20658;-75
2022/03/25 04:42:31;;;;;;;12.70;7.07;;;;;;;12.02;31.04;99712.47;5093486;28;20230;-75
2022/03/25 04:44:57;;;;;;;10.47;7.40;;;;;;;12.24;31.03;99729.94;5092505;28;20225;-73
2022/03/25 04:47:24;;;;;;;10.37;6.40;;;;;;;12.42;30.67;99735.50;5093673;28;20190;-73
2022/03/25 04:49:51;;;;;;;28.37;8.90;;;;;;;12.69;30.09;99739.88;5092681;28;20553;-75
2022/03/25 04:52:18;;;;;;;10.47;7.23;;;;;;;12.98;30.23;99746.72;5092369;28;20659;-77
2022/03/25 04:54:46;;;;;;;16.37;7.90;;;;;;;13.30;29.67;99745.84;5093454;28;20279;-75
2022/03/25 04:57:14;;;;;;;11.30;6.80;;;;;;;13.49;29.43;99748.50;5092709;28;20264;-76
2022/03/25 04:59:41;;;;;;;6.57;6.07;;;;;;;13.44;28.84;99737.59;5093464;28;20195;-77
2022/03/25 05:02:09;;;;;;;6.90;6.20;;;;;;;13.78;29.00;99750.69;5092140;28;20231;-76
2022/03/25 05:04:36;;;;;;;12.17;7.40;;;;;;;14.06;28.35;99748.53;5091888;28;20694;-74
2022/03/25 05:07:03;;;;;;;12.83;6.80;;;;;;;14.24;28.83;99759.34;5093587;28;20590;-83
2022/03/25 05:09:30;;;;;;;82.33;35.60;;;;;;;14.43;28.97;99753.09;5092624;28;20204;-73
2022/03/25 05:11:56;;;;;;;16.60;9.03;;;;;;;14.81;27.96;99759.22;5092954;28;20199;-83
2022/03/25 05:14:25;;;;;;;26.57;7.97;;;;;;;14.90;27.60;99763.28;5092645;28;20202;-69
2022/03/25 05:16:52;;;;;;;9.80;6.50;;;;;;;15.15;27.47;99758.75;5088185;28;20202;-69
2022/03/25 05:19:19;;;;;;;10.47;7.30;;;;;;;15.15;27.08;99752.59;5077697;28;20218;-69
2022/03/25 05:21:46;;;;;;;19.80;8.10;;;;;;;14.97;27.56;99753.34;5081586;28;20196;-68
2022/03/25 05:24:13;;;;;;;7.80;6.10;;;;;;;15.44;37.59;99743.91;5080912;28;20218;-73
2022/03/25 05:26:40;;;;;;;14.93;6.47;;;;;;;15.77;28.47;99755.91;5082526;28;20214;-70
2022/03/25 05:29:07;;;;;;;13.47;7.37;;;;;;;15.94;31.60;99762.28;5081232;28;20937;-73
2022/03/25 05:31:36;;;;;;;20.17;7.23;;;;;;;16.20;27.30;99763.03;5086029;28;20572;-72
2022/03/25 05:34:04;;;;;;;7.10;5.87;;;;;;;16.47;34.00;99735.69;5091863;28;20742;-71
2022/03/25 05:36:31;;;;;;;16.00;7.40;;;;;;;16.77;26.68;99757.09;5091825;28;20263;-76
2022/03/25 05:38:58;;;;;;;11.70;7.77;;;;;;;16.82;26.30;99760.72;5091090;28;20199;-72
2022/03/25 05:41:25;;;;;;;12.87;7.47;;;;;;;16.97;26.09;99762.97;5092814;28;20226;-73
2022/03/25 05:43:53;;;;;;;30.37;8.67;;;;;;;16.84;26.04;99764.03;5091715;28;20568;-71
2022/03/25 05:46:20;;;;;;;24.30;8.63;;;;;;;16.67;25.61;99772.94;5091190;28;20440;-71
2022/03/25 05:48:48;;;;;;;11.40;7.30;;;;;;;17.17;25.57;99763.47;5092059;28;20203;-71
2022/03/25 05:51:16;;;;;;;13.30;8.47;;;;;;;17.49;25.06;99764.81;5089534;28;20565;-75
2022/03/25 05:53:43;;;;;;;17.77;6.73;;;;;;;18.40;28.00;99771.13;5090992;28;20203;-77
2022/03/25 05:56:11;;;;;;;42.40;8.83;;;;;;;18.58;23.56;99769.03;5091818;28;20666;-74
2022/03/25 05:58:39;;;;;;;22.57;7.53;;;;;;;18.53;24.58;99770.81;5091875;28;20231;-82
2022/03/25 06:01:07;;;;;;;12.13;7.30;;;;;;;18.35;23.73;99773.72;5091899;28;20257;-78
2022/03/25 06:03:34;;;;;;;14.57;7.80;;;;;;;18.25;23.33;99773.50;5092073;28;20198;-78
2022/03/25 06:06:04;;;;;;;14.83;6.97;;;;;;;17.87;23.77;99770.50;5091667;28;20235;-76
2022/03/25 06:08:32;;;;;;;11.50;6.70;;;;;;;17.78;24.40;99762.00;5086046;28;20189;-77
2022/03/25 06:10:59;;;;;;;15.83;6.17;;;;;;;17.75;25.33;99769.72;5091843;28;20252;-77
2022/03/25 06:13:26;;;;;;;13.23;6.43;;;;;;;18.15;23.55;99767.88;5091956;28;20280;-80
2022/03/25 06:15:53;;;;;;;11.83;6.80;;;;;;;18.18;24.64;99767.41;5095954;28;20223;-76
2022/03/25 06:18:20;;;;;;;22.90;7.60;;;;;;;18.34;23.15;99777.47;5095217;28;20624;-77
2022/03/25 06:20:47;;;;;;;15.07;6.70;;;;;;;18.42;23.27;99774.41;5095797;28;20227;-78
2022/03/25 06:23:15;;;;;;;28.70;8.37;;;;;;;18.71;22.96;99768.75;5095954;28;20199;-74
2022/03/25 06:25:42;;;;;;;67.00;9.83;;;;;;;18.85;22.83;99777.34;5096033;28;20219;-76
2022/03/25 06:28:09;;;;;;;14.43;7.00;;;;;;;19.06;22.79;99777.47;5095285;28;20682;-77
2022/03/25 06:30:38;;;;;;;14.93;6.67;;;;;;;19.29;22.48;99780.03;5095084;28;20197;-77
2022/03/25 06:33:07;;;;;;;10.53;6.73;;;;;;;19.04;23.61;99784.16;5084739;28;20629;-72
2022/03/25 06:35:34;;;;;;;14.33;7.20;;;;;;;19.20;22.36;99783.34;5090214;28;20241;-72
2022/03/25 06:38:00;;;;;;;9.00;6.47;;;;;;;19.18;22.79;99785.44;5077191;28;20651;-73
2022/03/25 06:40:28;;;;;;;15.43;6.70;;;;;;;19.19;22.77;99774.44;5077773;28;20611;-73
2022/03/25 06:42:57;;;;;;;19.53;7.70;;;;;;;19.04;22.57;99781.47;5094679;28;20622;-71
2022/03/25 06:45:25;;;;;;;10.77;6.97;;;;;;;18.85;22.45;99785.41;5094803;28;20621;-69
2022/03/25 06:47:52;;;;;;;13.73;6.83;;;;;;;19.03;22.60;99787.91;5095226;28;20720;-71
2022/03/25 06:50:20;;;;;;;11.40;7.10;;;;;;;19.41;22.26;99785.34;5081001;28;20246;-71
2022/03/25 06:52:50;;;;;;;9.90;6.63;;;;;;;19.56;21.72;99788.28;5074970;28;20190;-71
2022/03/25 06:55:18;;;;;;;11.87;6.60;;;;;;;19.43;21.79;99785.88;5074582;28;20200;-71
2022/03/25 06:57:46;;;;;;;9.50;6.57;;;;;;;19.35;22.11;99780.91;5074636;28;20199;-68
2022/03/25 07:00:14;;;;;;;19.27;6.73;;;;;;;19.44;22.36;99790.25;5075327;28;20355;-68
2022/03/25 07:02:42;;;;;;;10.50;6.63;;;;;;;19.38;21.81;99783.94;5074114;28;20612;-72
2022/03/25 07:05:11;;;;;;;23.87;7.03;;;;;;;19.18;22.43;99780.06;5074467;28;20300;-69
2022/03/25 07:07:40;;;;;;;8.53;6.63;;;;;;;19.37;23.03;99781.50;5090369;28;20273;-69
2022/03/25 07:10:09;;;;;;;16.97;6.90;;;;;;;19.64;23.10;99785.16;5092477;28;20209;-76
2022/03/25 07:12:36;;;;;;;9.43;6.70;;;;;;;19.81;22.42;99785.94;5085981;28;20582;-75
2022/03/25 07:15:05;;;;;;;12.80;7.70;;;;;;;20.01;22.22;99780.81;5074434;28;20198;-72
2022/03/25 07:17:32;;;;;;;15.27;7.03;;;;;;;20.03;22.15;99786.78;5081373;28;20245;-73
2022/03/25 07:19:59;;;;;;;9.00;6.70;;;;;;;20.00;22.13;99779.19;5085494;28;20204;-73
2022/03/25 07:22:26;;;;;;;12.57;6.50;;;;;;;20.16;21.73;99778.34;5074119;28;20192;-73
2022/03/25 07:24:52;;;;;;;19.73;7.47;;;;;;;20.25;21.70;99766.84;5080645;28;20698;-77
2022/03/25 07:27:19;;;;;;;12.53;6.73;;;;;;;20.42;21.39;99772.19;5092220;28;20195;-72
2022/03/25 07:29:46;;;;;;;14.67;6.67;;;;;;;20.18;21.57;99782.41;5075070;28;20202;-78
2022/03/25 07:32:14;;;;;;;53.07;9.63;;;;;;;20.66;21.02;99781.63;5074303;28;20652;-74
2022/03/25 07:34:40;;;;;;;10.47;6.83;;;;;;;20.83;20.47;99784.22;5073697;28;20249;-74
2022/03/25 07:37:07;;;;;;;30.50;8.80;;;;;;;20.67;19.92;99781.38;5074693;28;20415;-74
2022/03/25 07:39:34;;;;;;;20.67;8.53;;;;;;;20.69;20.22;99778.41;5073826;28;20267;-73
2022/03/25 07:42:01;;;;;;;13.77;7.43;;;;;;;20.51;20.49;99766.06;5073744;28;20281;-74
2022/03/25 07:44:28;;;;;;;19.93;7.93;;;;;;;20.48;20.32;99779.25;5092278;28;20199;-76
2022/03/25 07:46:55;;;;;;;14.70;7.13;;;;;;;20.72;23.19;99764.41;5073996;28;20274;-75
2022/03/25 07:49:23;;;;;;;10.57;7.03;;;;;;;21.33;19.96;99772.03;5073753;28;20251;-76
2022/03/25 07:51:50;;;;;;;12.83;7.20;;;;;;;21.43;19.96;99763.19;5073390;28;20251;-78
2022/03/25 07:54:17;;;;;;;17.47;8.07;;;;;;;21.28;19.62;99771.16;5090323;28;20575;-74
2022/03/25 07:56:43;;;;;;;13.27;7.57;;;;;;;22.02;22.87;99765.47;5093272;28;20742;-76
2022/03/25 07:59:11;;;;;;;8.50;7.50;;;;;;;22.17;20.39;99765.50;5093804;28;20199;-75
2022/03/25 08:01:38;;;;;;;21.67;8.10;;;;;;;21.94;19.20;99757.84;5093859;28;20190;-78
2022/03/25 08:04:05;;;;;;;30.67;9.23;;;;;;;21.51;19.55;99760.00;5093440;28;20439;-73
2022/03/25 08:06:33;;;;;;;17.77;8.83;;;;;;;22.00;19.35;99758.66;5093116;28;20239;-72
2022/03/25 08:09:01;;;;;;;17.80;9.23;;;;;;;22.65;20.90;99748.91;5093322;28;20249;-71
2022/03/25 08:11:28;;;;;;;31.27;11.00;;;;;;;23.05;18.64;99759.81;5093427;28;20291;-75
2022/03/25 08:13:55;;;;;;;12.43;8.60;;;;;;;22.54;18.75;99754.59;5093128;28;20668;-75
2022/03/25 08:16:22;;;;;;;82.97;13.93;;;;;;;22.16;19.19;99757.66;5093673;28;20195;-75
2022/03/25 08:18:49;;;;;;;20.47;8.77;;;;;;;21.94;20.68;99744.31;5093172;28;20243;-75
2022/03/25 08:21:15;;;;;;;16.17;9.50;;;;;;;22.60;20.93;99743.50;5093466;28;20274;-74
2022/03/25 08:29:22;;;;;;;31.67;11.53;;;;;;;22.76;18.32;99737.03;5048101;28;20192;-76
2022/03/25 08:31:48;;;;;;;31.37;10.63;;;;;;;22.77;19.97;99732.41;5072707;28;20203;-76
2022/03/25 08:34:16;;;;;;;113.30;15.20;;;;;;;22.91;18.56;99737.03;5072738;28;20197;-78
2022/03/25 08:36:44;;;;;;;35.43;11.77;;;;;;;22.51;17.84;99739.69;5072975;28;20193;-80
2022/03/25 08:39:12;;;;;;;24.07;10.53;;;;;;;22.86;19.41;99728.88;5071676;28;20247;-77
2022/03/25 08:41:39;;;;;;;14.03;9.67;;;;;;;23.18;19.88;99724.03;5087290;28;20678;-73
2022/03/25 08:44:07;;;;;;;62.17;12.07;;;;;;;23.44;18.50;99731.06;5092603;28;20195;-73
2022/03/25 08:46:34;;;;;;;18.43;10.07;;;;;;;23.47;19.30;99722.38;5093699;28;20224;-77
2022/03/25 08:49:01;;;;;;;21.07;10.10;;;;;;;23.06;18.09;99719.94;5092530;28;20201;-76
2022/03/25 08:51:28;;;;;;;17.27;10.57;;;;;;;23.16;18.17;99715.34;5092542;28;20200;-76
2022/03/25 08:53:55;;;;;;;20.37;9.43;;;;;;;23.60;20.05;99708.25;5092667;28;20190;-72
2022/03/25 08:56:25;;;;;;;99.43;15.73;;;;;;;23.42;17.64;99719.69;5092289;28;20206;-72
2022/03/25 08:58:54;;;;;;;24.23;10.33;;;;;;;23.46;17.55;99715.34;5092608;28;20194;-74
2022/03/25 09:01:20;;;;;;;48.30;12.45;;;;;;;23.91;18.53;99701.69;5090470;28;21061;-75
2022/03/25 09:03:47;;;;;;;35.40;12.63;;;;;;;23.27;17.22;99695.31;5090756;28;20616;-79
2022/03/25 09:06:14;;;;;;;33.83;11.87;;;;;;;22.91;17.65;99718.06;5090552;28;20290;-76
2022/03/25 09:08:41;;;;;;;35.53;11.97;;;;;;;22.69;17.47;99698.53;5091346;28;20201;-73
2022/03/25 09:11:09;;;;;;;21.90;10.77;;;;;;;23.10;17.94;99712.91;5092644;28;20254;-77
2022/03/25 09:13:39;;;;;;;32.33;12.37;;;;;;;22.40;17.60;99708.22;5092290;28;20197;-78
2022/03/25 09:16:06;;;;;;;26.07;11.53;;;;;;;22.68;17.72;99715.88;5092035;28;20191;-73
2022/03/25 09:18:33;;;;;;;18.47;11.07;;;;;;;22.83;17.30;99705.03;5091705;28;20283;-71
2022/03/25 09:21:00;;;;;;;28.27;10.50;;;;;;;22.30;17.99;99704.66;5091727;28;20191;-72
2022/03/25 09:23:27;;;;;;;38.60;12.20;;;;;;;22.47;18.28;99691.75;5092164;28;20190;-70
2022/03/25 09:25:54;;;;;;;15.63;10.13;;;;;;;22.79;22.95;99698.53;5091662;28;20218;-72
2022/03/25 09:28:21;;;;;;;16.93;10.37;;;;;;;23.02;17.59;99697.19;5091753;28;20192;-74
2022/03/25 09:30:49;;;;;;;12.90;10.13;;;;;;;23.50;18.24;99681.16;5091743;28;20195;-72
2022/03/25 09:33:15;;;;;;;54.40;13.00;;;;;;;23.88;18.22;99696.78;5091824;28;20188;-72
2022/03/25 09:35:42;;;;;;;24.80;11.07;;;;;;;24.03;16.98;99688.59;5092129;28;20258;-74
2022/03/25 09:38:09;;;;;;;17.70;10.83;;;;;;;23.82;17.90;99684.34;5092282;28;20288;-73
2022/03/25 09:40:36;;;;;;;37.73;11.73;;;;;;;23.92;18.42;99695.16;5085872;28;20613;-73
2022/03/25 09:43:04;;;;;;;26.80;11.33;;;;;;;24.24;18.03;99683.88;5071622;28;20728;-76
2022/03/25 09:45:33;;;;;;;14.37;10.17;;;;;;;24.56;16.04;99690.47;5071024;28;20227;-74
2022/03/25 09:48:02;;;;;;;49.37;11.97;;;;;;;24.68;17.16;99696.41;5101284;28;20205;-71
2022/03/25 09:50:31;;;;;;;21.50;11.33;;;;;;;24.39;16.76;99681.88;5114405;28;20198;-77
2022/03/25 09:52:58;;;;;;;126.83;17.73;;;;;;;23.57;17.14;99681.66;5114901;27;20657;-75
2022/03/25 09:55:24;;;;;;;22.10;10.10;;;;;;;23.52;17.17;99697.97;5114788;28;20196;-76
2022/03/25 09:57:51;;;;;;;12.13;9.87;;;;;;;23.58;16.61;99679.78;5116338;28;20197;-72
2022/03/25 10:00:20;;;;;;;28.43;11.20;;;;;;;23.63;17.16;99683.28;5116368;28;20224;-69
2022/03/25 10:02:47;;;;;;;17.33;9.70;;;;;;;23.79;16.82;99682.16;5116634;28;20193;-67
2022/03/25 10:05:17;;;;;;;17.70;9.40;;;;;;;23.98;19.30;99679.69;5116093;28;20233;-68
2022/03/25 10:07:46;;;;;;;17.17;10.23;;;;;;;24.00;16.69;99678.31;5116240;28;20193;-68
2022/03/25 10:10:14;;;;;;;11.93;10.30;;;;;;;23.50;17.25;99688.47;5116209;28;20198;-68
2022/03/25 10:12:42;;;;;;;20.73;10.37;;;;;;;23.85;18.15;99691.09;5115897;28;20193;-67
2022/03/25 10:15:13;;;;;;;12.67;9.93;;;;;;;24.03;16.54;99687.78;5116309;28;20275;-68
2022/03/25 10:17:47;;;;;;;16.07;10.40;;;;;;;24.12;16.84;99681.50;5116566;28;20666;-68
2022/03/25 10:20:16;;;;;;;14.57;8.80;;;;;;;24.07;16.95;99672.56;5114700;28;20729;-68
2022/03/25 10:22:57;;;;;;;13.83;10.33;;;;;;;24.02;16.83;99670.69;5115656;28;20273;-67
2022/03/25 10:25:33;;;;;;;135.80;17.70;;;;;;;24.20;17.04;99678.19;5116295;28;20186;-68
2022/03/25 10:28:00;;;;;;;11.73;9.93;;;;;;;24.14;17.78;99671.16;5116504;28;20194;-67
2022/03/25 10:30:36;;;;;;;12.17;10.27;;;;;;;24.34;16.69;99667.53;5115786;28;20259;-67
2022/03/25 10:33:09;;;;;;;16.57;10.43;;;;;;;24.28;16.78;99669.47;5116303;28;20263;-69
2022/03/25 10:36:02;;;;;;;15.10;9.83;;;;;;;24.33;16.57;99669.44;5115819;27;20190;-69
2022/03/25 10:38:45;;;;;;;14.17;9.30;;;;;;;24.38;18.10;99663.97;5116109;28;20254;-68
2022/03/25 10:41:14;;;;;;;16.67;8.57;;;;;;;24.05;15.59;99677.47;5104426;28;20620;-67
2022/03/25 10:43:59;;;;;;;187.93;17.20;;;;;;;23.85;17.62;99670.19;5094870;28;20548;-68
2022/03/25 10:46:31;;;;;;;14.03;8.60;;;;;;;23.90;16.80;99664.75;5093744;28;20226;-68
2022/03/25 10:48:59;;;;;;;13.07;8.03;;;;;;;23.96;15.75;99676.41;5094706;28;20190;-69
2022/03/25 10:51:27;;;;;;;46.57;8.97;;;;;;;23.88;15.64;99664.22;5095055;28;20542;-68
2022/03/25 10:53:58;;;;;;;9.43;6.30;;;;;;;24.07;15.05;99661.72;5093719;28;20202;-69
2022/03/25 10:56:25;;;;;;;13.20;6.37;;;;;;;24.05;15.92;99653.84;5094363;28;20182;-69
2022/03/25 10:58:53;;;;;;;17.67;7.63;;;;;;;23.91;14.53;99662.88;5095343;28;20247;-68
2022/03/25 11:01:20;;;;;;;13.57;7.23;;;;;;;23.75;14.55;99653.13;5093791;28;20202;-68
2022/03/25 11:03:49;;;;;;;22.60;8.80;;;;;;;23.80;15.31;99653.94;5094345;28;20191;-68
2022/03/25 11:06:17;;;;;;;14.07;7.23;;;;;;;23.95;16.49;99648.47;5094388;28;20226;-69
2022/03/25 11:08:46;;;;;;;9.50;7.10;;;;;;;23.89;15.15;99657.69;5094405;28;20200;-69
2022/03/25 11:11:13;;;;;;;17.87;7.17;;;;;;;24.13;15.12;99649.75;5094905;28;20242;-68
2022/03/25 11:13:40;;;;;;;14.57;6.03;;;;;;;23.87;16.00;99642.78;5094546;28;20198;-68
2022/03/25 11:16:08;;;;;;;14.87;5.90;;;;;;;24.05;14.24;99648.41;5094442;28;20194;-70
2022/03/25 11:18:40;;;;;;;71.23;10.23;;;;;;;24.06;13.98;99643.81;5094193;28;20205;-68
2022/03/25 11:21:08;;;;;;;77.20;9.67;;;;;;;24.23;13.74;99645.06;5094725;28;20252;-68
2022/03/25 11:23:41;;;;;;;28.23;6.90;;;;;;;23.59;12.69;99629.88;5093306;28;20280;-69
2022/03/25 11:26:12;;;;;;;28.00;7.57;;;;;;;23.54;13.40;99649.69;5094643;28;20214;-69
2022/03/25 11:28:39;;;;;;;22.70;6.10;;;;;;;23.06;12.73;99628.63;5093553;28;20178;-68
2022/03/25 11:31:08;;;;;;;13.50;5.27;;;;;;;22.90;12.41;99635.16;5093565;28;20190;-69
2022/03/25 11:34:07;;;;;;;7.47;4.37;;;;;;;22.81;13.08;99642.22;5093072;28;20193;-67
2022/03/25 11:36:36;;;;;;;26.60;6.30;;;;;;;23.11;13.27;99641.38;5094237;28;20236;-66